sensor_id;sensor_type;location;lat;lon;timestamp;P1;durP1;ratioP1;P2;durP2;ratioP2
48199;SDS011;33990;44.602;10.976;2023-07-29T00:00:58;4.97;;;2.63;;
48199;SDS011;33990;44.602;10.976;2023-07-29T00:03:27;5.85;;;2.65;;
48199;SDS011;33990;44.602;10.976;2023-07-29T00:05:57;5.50;;;3.42;;
48199;SDS011;33990;44.602;10.976;2023-07-29T00:08:24;4.55;;;3.20;;
48199;SDS011;33990;44.602;10.976;2023-07-29T00:10:52;4.50;;;2.95;;
48199;SDS011;33990;44.602;10.976;2023-07-29T00:13:19;4.05;;;2.72;;
48199;SDS011;33990;44.602;10.976;2023-07-29T00:15:48;4.18;;;3.20;;
48199;SDS011;33990;44.602;10.976;2023-07-29T00:18:16;4.65;;;2.63;;
48199;SDS011;33990;44.602;10.976;2023-07-29T00:20:43;5.10;;;2.65;;
48199;SDS011;33990;44.602;10.976;2023-07-29T00:23:11;3.63;;;2.58;;
48199;SDS011;33990;44.602;10.976;2023-07-29T00:25:38;4.97;;;2.65;;
48199;SDS011;33990;44.602;10.976;2023-07-29T00:28:09;4.38;;;2.58;;
48199;SDS011;33990;44.602;10.976;2023-07-29T00:30:37;6.30;;;3.22;;
48199;SDS011;33990;44.602;10.976;2023-07-29T00:33:05;3.20;;;2.40;;
48199;SDS011;33990;44.602;10.976;2023-07-29T00:35:38;5.13;;;3.53;;
48199;SDS011;33990;44.602;10.976;2023-07-29T00:38:05;5.25;;;3.13;;
48199;SDS011;33990;44.602;10.976;2023-07-29T00:40:34;3.58;;;2.63;;
48199;SDS011;33990;44.602;10.976;2023-07-29T00:43:03;4.90;;;2.40;;
48199;SDS011;33990;44.602;10.976;2023-07-29T00:45:30;4.10;;;2.42;;
48199;SDS011;33990;44.602;10.976;2023-07-29T00:48:02;3.83;;;2.35;;
48199;SDS011;33990;44.602;10.976;2023-07-29T00:50:31;4.22;;;2.55;;
48199;SDS011;33990;44.602;10.976;2023-07-29T00:53:00;3.65;;;2.67;;
48199;SDS011;33990;44.602;10.976;2023-07-29T00:55:27;4.57;;;3.15;;
48199;SDS011;33990;44.602;10.976;2023-07-29T00:57:55;4.30;;;2.45;;
48199;SDS011;33990;44.602;10.976;2023-07-29T01:00:23;3.78;;;3.00;;
48199;SDS011;33990;44.602;10.976;2023-07-29T01:02:52;4.05;;;2.78;;
48199;SDS011;33990;44.602;10.976;2023-07-29T01:05:22;3.88;;;2.70;;
48199;SDS011;33990;44.602;10.976;2023-07-29T01:07:59;5.75;;;3.15;;
48199;SDS011;33990;44.602;10.976;2023-07-29T01:11:09;4.20;;;2.53;;
48199;SDS011;33990;44.602;10.976;2023-07-29T01:13:54;4.47;;;2.88;;
48199;SDS011;33990;44.602;10.976;2023-07-29T01:16:34;5.22;;;3.28;;
48199;SDS011;33990;44.602;10.976;2023-07-29T01:19:11;5.20;;;2.97;;
48199;SDS011;33990;44.602;10.976;2023-07-29T01:21:52;4.28;;;3.03;;
48199;SDS011;33990;44.602;10.976;2023-07-29T01:24:19;3.30;;;2.58;;
48199;SDS011;33990;44.602;10.976;2023-07-29T01:26:47;4.22;;;3.03;;
48199;SDS011;33990;44.602;10.976;2023-07-29T01:29:14;3.90;;;2.50;;
48199;SDS011;33990;44.602;10.976;2023-07-29T01:31:43;4.05;;;2.97;;
48199;SDS011;33990;44.602;10.976;2023-07-29T01:34:16;4.43;;;2.75;;
48199;SDS011;33990;44.602;10.976;2023-07-29T01:36:52;4.95;;;3.05;;
48199;SDS011;33990;44.602;10.976;2023-07-29T01:39:29;3.88;;;2.92;;
48199;SDS011;33990;44.602;10.976;2023-07-29T01:41:59;4.13;;;3.05;;
48199;SDS011;33990;44.602;10.976;2023-07-29T01:44:27;4.22;;;2.60;;
48199;SDS011;33990;44.602;10.976;2023-07-29T01:46:56;4.15;;;3.20;;
48199;SDS011;33990;44.602;10.976;2023-07-29T01:49:23;4.82;;;2.58;;
48199;SDS011;33990;44.602;10.976;2023-07-29T01:51:51;3.90;;;2.92;;
48199;SDS011;33990;44.602;10.976;2023-07-29T01:54:18;5.28;;;3.15;;
48199;SDS011;33990;44.602;10.976;2023-07-29T01:56:46;3.63;;;2.80;;
48199;SDS011;33990;44.602;10.976;2023-07-29T01:59:13;4.82;;;3.05;;
48199;SDS011;33990;44.602;10.976;2023-07-29T02:01:43;3.80;;;3.05;;
48199;SDS011;33990;44.602;10.976;2023-07-29T02:04:10;5.18;;;3.55;;
48199;SDS011;33990;44.602;10.976;2023-07-29T02:06:38;4.10;;;3.03;;
48199;SDS011;33990;44.602;10.976;2023-07-29T02:09:05;4.43;;;3.30;;
48199;SDS011;33990;44.602;10.976;2023-07-29T02:11:33;4.15;;;3.03;;
48199;SDS011;33990;44.602;10.976;2023-07-29T02:14:00;4.72;;;2.92;;
48199;SDS011;33990;44.602;10.976;2023-07-29T02:16:27;4.22;;;2.95;;
48199;SDS011;33990;44.602;10.976;2023-07-29T02:18:55;6.35;;;3.22;;
48199;SDS011;33990;44.602;10.976;2023-07-29T02:21:23;3.70;;;2.42;;
48199;SDS011;33990;44.602;10.976;2023-07-29T02:23:50;4.35;;;3.10;;
48199;SDS011;33990;44.602;10.976;2023-07-29T02:26:18;4.25;;;3.25;;
48199;SDS011;33990;44.602;10.976;2023-07-29T02:28:46;5.43;;;3.22;;
48199;SDS011;33990;44.602;10.976;2023-07-29T02:31:20;5.65;;;3.35;;
48199;SDS011;33990;44.602;10.976;2023-07-29T02:33:49;5.07;;;4.10;;
48199;SDS011;33990;44.602;10.976;2023-07-29T02:36:18;5.32;;;3.05;;
48199;SDS011;33990;44.602;10.976;2023-07-29T02:38:45;5.55;;;3.35;;
48199;SDS011;33990;44.602;10.976;2023-07-29T02:41:13;4.78;;;3.33;;
48199;SDS011;33990;44.602;10.976;2023-07-29T02:43:43;5.10;;;3.38;;
48199;SDS011;33990;44.602;10.976;2023-07-29T02:46:10;5.00;;;3.30;;
48199;SDS011;33990;44.602;10.976;2023-07-29T02:48:38;4.30;;;3.03;;
48199;SDS011;33990;44.602;10.976;2023-07-29T02:51:05;4.68;;;2.80;;
48199;SDS011;33990;44.602;10.976;2023-07-29T02:53:33;5.60;;;2.80;;
48199;SDS011;33990;44.602;10.976;2023-07-29T02:56:00;4.97;;;3.35;;
48199;SDS011;33990;44.602;10.976;2023-07-29T02:58:28;5.43;;;3.70;;
48199;SDS011;33990;44.602;10.976;2023-07-29T03:01:02;5.47;;;3.38;;
48199;SDS011;33990;44.602;10.976;2023-07-29T03:03:31;4.10;;;3.38;;
48199;SDS011;33990;44.602;10.976;2023-07-29T03:06:03;3.42;;;2.90;;
48199;SDS011;33990;44.602;10.976;2023-07-29T03:08:32;5.25;;;3.60;;
48199;SDS011;33990;44.602;10.976;2023-07-29T03:11:10;4.88;;;3.40;;
48199;SDS011;33990;44.602;10.976;2023-07-29T03:13:38;5.05;;;3.17;;
48199;SDS011;33990;44.602;10.976;2023-07-29T03:18:35;5.13;;;3.50;;
48199;SDS011;33990;44.602;10.976;2023-07-29T03:21:03;5.03;;;3.30;;
48199;SDS011;33990;44.602;10.976;2023-07-29T03:23:30;4.25;;;3.30;;
48199;SDS011;33990;44.602;10.976;2023-07-29T03:25:59;4.13;;;2.97;;
48199;SDS011;33990;44.602;10.976;2023-07-29T03:28:28;4.00;;;2.88;;
48199;SDS011;33990;44.602;10.976;2023-07-29T03:30:56;5.40;;;3.40;;
48199;SDS011;33990;44.602;10.976;2023-07-29T03:33:25;3.60;;;3.08;;
48199;SDS011;33990;44.602;10.976;2023-07-29T03:35:53;4.90;;;2.97;;
48199;SDS011;33990;44.602;10.976;2023-07-29T03:38:20;4.00;;;3.20;;
48199;SDS011;33990;44.602;10.976;2023-07-29T03:40:48;3.78;;;3.10;;
48199;SDS011;33990;44.602;10.976;2023-07-29T03:43:15;4.75;;;3.40;;
48199;SDS011;33990;44.602;10.976;2023-07-29T03:45:43;3.85;;;3.35;;
48199;SDS011;33990;44.602;10.976;2023-07-29T03:48:11;5.20;;;3.13;;
48199;SDS011;33990;44.602;10.976;2023-07-29T03:50:38;4.47;;;3.42;;
48199;SDS011;33990;44.602;10.976;2023-07-29T03:53:06;4.10;;;2.92;;
48199;SDS011;33990;44.602;10.976;2023-07-29T03:55:33;4.97;;;3.28;;
48199;SDS011;33990;44.602;10.976;2023-07-29T03:58:01;5.53;;;3.08;;
48199;SDS011;33990;44.602;10.976;2023-07-29T04:00:28;5.45;;;3.60;;
48199;SDS011;33990;44.602;10.976;2023-07-29T04:02:56;6.00;;;3.50;;
48199;SDS011;33990;44.602;10.976;2023-07-29T04:05:23;4.82;;;4.20;;
48199;SDS011;33990;44.602;10.976;2023-07-29T04:07:51;5.57;;;4.97;;
48199;SDS011;33990;44.602;10.976;2023-07-29T04:10:29;4.72;;;4.22;;
48199;SDS011;33990;44.602;10.976;2023-07-29T04:12:58;6.05;;;4.65;;
48199;SDS011;33990;44.602;10.976;2023-07-29T04:15:26;6.93;;;4.22;;
48199;SDS011;33990;44.602;10.976;2023-07-29T04:17:53;4.97;;;3.85;;
48199;SDS011;33990;44.602;10.976;2023-07-29T04:20:20;4.22;;;3.60;;
48199;SDS011;33990;44.602;10.976;2023-07-29T04:22:48;5.18;;;3.90;;
48199;SDS011;33990;44.602;10.976;2023-07-29T04:25:15;4.88;;;3.70;;
48199;SDS011;33990;44.602;10.976;2023-07-29T04:27:43;4.75;;;3.70;;
48199;SDS011;33990;44.602;10.976;2023-07-29T04:30:10;4.63;;;3.95;;
48199;SDS011;33990;44.602;10.976;2023-07-29T04:32:38;5.78;;;4.03;;
48199;SDS011;33990;44.602;10.976;2023-07-29T04:35:08;4.90;;;3.85;;
48199;SDS011;33990;44.602;10.976;2023-07-29T04:37:36;4.70;;;3.70;;
48199;SDS011;33990;44.602;10.976;2023-07-29T04:40:04;5.25;;;3.80;;
48199;SDS011;33990;44.602;10.976;2023-07-29T04:42:32;5.03;;;4.30;;
48199;SDS011;33990;44.602;10.976;2023-07-29T04:44:59;5.55;;;3.88;;
48199;SDS011;33990;44.602;10.976;2023-07-29T04:47:27;6.13;;;4.00;;
48199;SDS011;33990;44.602;10.976;2023-07-29T04:49:54;4.65;;;3.83;;
48199;SDS011;33990;44.602;10.976;2023-07-29T04:52:21;4.90;;;3.78;;
48199;SDS011;33990;44.602;10.976;2023-07-29T04:54:49;4.78;;;3.80;;
48199;SDS011;33990;44.602;10.976;2023-07-29T04:57:16;5.57;;;4.43;;
48199;SDS011;33990;44.602;10.976;2023-07-29T04:59:43;4.88;;;3.92;;
48199;SDS011;33990;44.602;10.976;2023-07-29T05:02:11;4.97;;;3.97;;
48199;SDS011;33990;44.602;10.976;2023-07-29T05:04:38;5.22;;;3.92;;
48199;SDS011;33990;44.602;10.976;2023-07-29T05:07:06;6.30;;;4.00;;
48199;SDS011;33990;44.602;10.976;2023-07-29T05:09:33;4.75;;;3.78;;
48199;SDS011;33990;44.602;10.976;2023-07-29T05:12:01;5.45;;;3.95;;
48199;SDS011;33990;44.602;10.976;2023-07-29T05:14:29;4.97;;;3.95;;
48199;SDS011;33990;44.602;10.976;2023-07-29T05:16:56;4.93;;;3.97;;
48199;SDS011;33990;44.602;10.976;2023-07-29T05:19:23;6.53;;;4.22;;
48199;SDS011;33990;44.602;10.976;2023-07-29T05:21:51;7.32;;;4.20;;
48199;SDS011;33990;44.602;10.976;2023-07-29T05:24:18;4.47;;;3.67;;
48199;SDS011;33990;44.602;10.976;2023-07-29T05:26:46;5.43;;;4.25;;
48199;SDS011;33990;44.602;10.976;2023-07-29T05:29:13;5.43;;;4.30;;
48199;SDS011;33990;44.602;10.976;2023-07-29T05:31:41;4.90;;;3.85;;
48199;SDS011;33990;44.602;10.976;2023-07-29T05:34:08;5.55;;;4.53;;
48199;SDS011;33990;44.602;10.976;2023-07-29T05:36:36;4.95;;;4.35;;
48199;SDS011;33990;44.602;10.976;2023-07-29T05:39:04;5.30;;;4.00;;
48199;SDS011;33990;44.602;10.976;2023-07-29T05:41:31;5.63;;;4.10;;
48199;SDS011;33990;44.602;10.976;2023-07-29T05:43:58;6.40;;;4.35;;
48199;SDS011;33990;44.602;10.976;2023-07-29T05:46:26;5.63;;;4.43;;
48199;SDS011;33990;44.602;10.976;2023-07-29T05:48:54;5.15;;;3.97;;
48199;SDS011;33990;44.602;10.976;2023-07-29T05:51:21;5.03;;;4.20;;
48199;SDS011;33990;44.602;10.976;2023-07-29T05:53:49;4.72;;;3.72;;
48199;SDS011;33990;44.602;10.976;2023-07-29T05:56:16;5.35;;;4.22;;
48199;SDS011;33990;44.602;10.976;2023-07-29T05:58:44;4.82;;;3.92;;
48199;SDS011;33990;44.602;10.976;2023-07-29T06:01:11;5.47;;;4.55;;
48199;SDS011;33990;44.602;10.976;2023-07-29T06:03:39;6.60;;;4.57;;
48199;SDS011;33990;44.602;10.976;2023-07-29T06:06:06;5.63;;;4.45;;
48199;SDS011;33990;44.602;10.976;2023-07-29T06:08:34;5.72;;;3.78;;
48199;SDS011;33990;44.602;10.976;2023-07-29T06:11:02;5.15;;;4.05;;
48199;SDS011;33990;44.602;10.976;2023-07-29T06:13:29;5.55;;;4.10;;
48199;SDS011;33990;44.602;10.976;2023-07-29T06:15:56;4.68;;;3.58;;
48199;SDS011;33990;44.602;10.976;2023-07-29T06:18:25;4.50;;;3.95;;
48199;SDS011;33990;44.602;10.976;2023-07-29T06:20:52;4.65;;;3.65;;
48199;SDS011;33990;44.602;10.976;2023-07-29T06:23:20;5.07;;;3.13;;
48199;SDS011;33990;44.602;10.976;2023-07-29T06:25:47;4.47;;;3.40;;
48199;SDS011;33990;44.602;10.976;2023-07-29T06:28:14;5.35;;;4.07;;
48199;SDS011;33990;44.602;10.976;2023-07-29T06:30:42;6.40;;;4.15;;
48199;SDS011;33990;44.602;10.976;2023-07-29T06:33:09;4.13;;;3.58;;
48199;SDS011;33990;44.602;10.976;2023-07-29T06:35:37;4.10;;;3.50;;
48199;SDS011;33990;44.602;10.976;2023-07-29T06:38:04;6.75;;;3.63;;
48199;SDS011;33990;44.602;10.976;2023-07-29T06:40:31;3.83;;;3.42;;
48199;SDS011;33990;44.602;10.976;2023-07-29T06:42:58;6.13;;;4.38;;
48199;SDS011;33990;44.602;10.976;2023-07-29T06:45:26;5.47;;;3.00;;
48199;SDS011;33990;44.602;10.976;2023-07-29T06:47:53;5.32;;;3.65;;
48199;SDS011;33990;44.602;10.976;2023-07-29T06:50:21;5.35;;;3.22;;
48199;SDS011;33990;44.602;10.976;2023-07-29T06:52:48;4.50;;;3.40;;
48199;SDS011;33990;44.602;10.976;2023-07-29T06:55:16;6.13;;;3.00;;
48199;SDS011;33990;44.602;10.976;2023-07-29T06:57:43;3.90;;;2.78;;
48199;SDS011;33990;44.602;10.976;2023-07-29T07:00:10;4.22;;;3.20;;
48199;SDS011;33990;44.602;10.976;2023-07-29T07:02:38;5.38;;;3.17;;
48199;SDS011;33990;44.602;10.976;2023-07-29T07:05:05;4.32;;;3.10;;
48199;SDS011;33990;44.602;10.976;2023-07-29T07:07:33;3.70;;;2.90;;
48199;SDS011;33990;44.602;10.976;2023-07-29T07:10:00;3.45;;;2.28;;
48199;SDS011;33990;44.602;10.976;2023-07-29T07:12:28;3.70;;;2.75;;
48199;SDS011;33990;44.602;10.976;2023-07-29T07:14:55;4.22;;;2.97;;
48199;SDS011;33990;44.602;10.976;2023-07-29T07:17:22;3.88;;;2.72;;
48199;SDS011;33990;44.602;10.976;2023-07-29T07:19:50;4.72;;;2.95;;
48199;SDS011;33990;44.602;10.976;2023-07-29T07:22:17;3.92;;;2.88;;
48199;SDS011;33990;44.602;10.976;2023-07-29T07:24:45;5.10;;;2.88;;
48199;SDS011;33990;44.602;10.976;2023-07-29T07:27:12;5.53;;;2.70;;
48199;SDS011;33990;44.602;10.976;2023-07-29T07:29:39;4.38;;;3.40;;
48199;SDS011;33990;44.602;10.976;2023-07-29T07:32:07;4.32;;;3.38;;
48199;SDS011;33990;44.602;10.976;2023-07-29T07:34:34;6.35;;;3.42;;
48199;SDS011;33990;44.602;10.976;2023-07-29T07:37:02;4.78;;;3.00;;
48199;SDS011;33990;44.602;10.976;2023-07-29T07:39:31;4.85;;;2.55;;
48199;SDS011;33990;44.602;10.976;2023-07-29T07:41:59;4.18;;;2.80;;
48199;SDS011;33990;44.602;10.976;2023-07-29T07:44:26;4.85;;;3.00;;
48199;SDS011;33990;44.602;10.976;2023-07-29T07:46:53;4.50;;;2.53;;
48199;SDS011;33990;44.602;10.976;2023-07-29T07:49:21;5.03;;;2.35;;
48199;SDS011;33990;44.602;10.976;2023-07-29T07:51:49;4.90;;;2.78;;
48199;SDS011;33990;44.602;10.976;2023-07-29T07:54:16;2.97;;;2.20;;
48199;SDS011;33990;44.602;10.976;2023-07-29T07:56:44;4.03;;;2.60;;
48199;SDS011;33990;44.602;10.976;2023-07-29T07:59:11;4.55;;;2.80;;
48199;SDS011;33990;44.602;10.976;2023-07-29T08:01:41;4.75;;;2.90;;
48199;SDS011;33990;44.602;10.976;2023-07-29T08:04:08;5.88;;;2.28;;
48199;SDS011;33990;44.602;10.976;2023-07-29T08:06:36;5.30;;;2.72;;
48199;SDS011;33990;44.602;10.976;2023-07-29T08:09:04;4.63;;;2.53;;
48199;SDS011;33990;44.602;10.976;2023-07-29T08:11:31;4.28;;;2.78;;
48199;SDS011;33990;44.602;10.976;2023-07-29T08:13:59;3.47;;;2.20;;
48199;SDS011;33990;44.602;10.976;2023-07-29T08:16:26;4.28;;;2.65;;
48199;SDS011;33990;44.602;10.976;2023-07-29T08:18:55;4.60;;;2.42;;
48199;SDS011;33990;44.602;10.976;2023-07-29T08:21:23;2.97;;;2.08;;
48199;SDS011;33990;44.602;10.976;2023-07-29T08:23:50;3.83;;;2.22;;
48199;SDS011;33990;44.602;10.976;2023-07-29T08:26:17;4.43;;;2.63;;
48199;SDS011;33990;44.602;10.976;2023-07-29T08:28:45;3.22;;;2.22;;
48199;SDS011;33990;44.602;10.976;2023-07-29T08:31:12;5.15;;;2.70;;
48199;SDS011;33990;44.602;10.976;2023-07-29T08:33:39;5.22;;;2.60;;
48199;SDS011;33990;44.602;10.976;2023-07-29T08:36:07;4.30;;;2.75;;
48199;SDS011;33990;44.602;10.976;2023-07-29T08:38:34;4.18;;;2.80;;
48199;SDS011;33990;44.602;10.976;2023-07-29T08:41:06;3.95;;;2.70;;
48199;SDS011;33990;44.602;10.976;2023-07-29T08:43:59;4.28;;;2.60;;
48199;SDS011;33990;44.602;10.976;2023-07-29T08:46:36;3.47;;;2.58;;
48199;SDS011;33990;44.602;10.976;2023-07-29T08:49:04;3.70;;;2.55;;
48199;SDS011;33990;44.602;10.976;2023-07-29T08:51:32;4.90;;;2.55;;
48199;SDS011;33990;44.602;10.976;2023-07-29T08:54:01;3.95;;;2.42;;
48199;SDS011;33990;44.602;10.976;2023-07-29T08:56:29;3.80;;;2.55;;
48199;SDS011;33990;44.602;10.976;2023-07-29T08:58:57;4.68;;;2.05;;
48199;SDS011;33990;44.602;10.976;2023-07-29T09:01:27;4.40;;;2.05;;
48199;SDS011;33990;44.602;10.976;2023-07-29T09:03:55;3.70;;;2.33;;
48199;SDS011;33990;44.602;10.976;2023-07-29T09:06:23;3.67;;;2.58;;
48199;SDS011;33990;44.602;10.976;2023-07-29T09:08:55;4.35;;;2.47;;
48199;SDS011;33990;44.602;10.976;2023-07-29T09:11:23;3.13;;;2.20;;
48199;SDS011;33990;44.602;10.976;2023-07-29T09:13:51;3.67;;;2.63;;
48199;SDS011;33990;44.602;10.976;2023-07-29T09:16:20;4.15;;;2.42;;
48199;SDS011;33990;44.602;10.976;2023-07-29T09:18:48;3.42;;;2.40;;
48199;SDS011;33990;44.602;10.976;2023-07-29T09:21:23;3.50;;;2.25;;
48199;SDS011;33990;44.602;10.976;2023-07-29T09:23:53;4.20;;;2.88;;
48199;SDS011;33990;44.602;10.976;2023-07-29T09:26:25;3.30;;;2.25;;
48199;SDS011;33990;44.602;10.976;2023-07-29T09:28:54;3.30;;;2.25;;
48199;SDS011;33990;44.602;10.976;2023-07-29T09:31:25;3.20;;;2.30;;
48199;SDS011;33990;44.602;10.976;2023-07-29T09:34:00;5.65;;;2.83;;
48199;SDS011;33990;44.602;10.976;2023-07-29T09:36:30;3.75;;;2.33;;
48199;SDS011;33990;44.602;10.976;2023-07-29T09:38:59;3.65;;;2.60;;
48199;SDS011;33990;44.602;10.976;2023-07-29T09:41:27;4.28;;;2.33;;
48199;SDS011;33990;44.602;10.976;2023-07-29T09:43:59;3.45;;;2.70;;
48199;SDS011;33990;44.602;10.976;2023-07-29T09:46:33;3.25;;;2.22;;
48199;SDS011;33990;44.602;10.976;2023-07-29T09:49:06;3.88;;;2.50;;
48199;SDS011;33990;44.602;10.976;2023-07-29T09:51:38;3.42;;;2.33;;
48199;SDS011;33990;44.602;10.976;2023-07-29T09:54:06;5.13;;;2.97;;
48199;SDS011;33990;44.602;10.976;2023-07-29T09:56:34;3.92;;;2.17;;
48199;SDS011;33990;44.602;10.976;2023-07-29T09:59:08;3.78;;;2.40;;
48199;SDS011;33990;44.602;10.976;2023-07-29T10:01:36;3.83;;;2.33;;
48199;SDS011;33990;44.602;10.976;2023-07-29T10:04:04;3.15;;;2.20;;
48199;SDS011;33990;44.602;10.976;2023-07-29T10:06:34;4.25;;;2.22;;
48199;SDS011;33990;44.602;10.976;2023-07-29T10:09:04;4.05;;;2.63;;
48199;SDS011;33990;44.602;10.976;2023-07-29T10:11:32;4.60;;;2.63;;
48199;SDS011;33990;44.602;10.976;2023-07-29T10:14:00;4.32;;;2.67;;
48199;SDS011;33990;44.602;10.976;2023-07-29T10:16:39;2.95;;;2.33;;
48199;SDS011;33990;44.602;10.976;2023-07-29T10:19:09;4.10;;;2.28;;
48199;SDS011;33990;44.602;10.976;2023-07-29T10:21:38;4.82;;;2.70;;
48199;SDS011;33990;44.602;10.976;2023-07-29T10:24:09;4.55;;;2.72;;
48199;SDS011;33990;44.602;10.976;2023-07-29T10:26:43;4.25;;;2.63;;
48199;SDS011;33990;44.602;10.976;2023-07-29T10:29:14;3.22;;;2.25;;
48199;SDS011;33990;44.602;10.976;2023-07-29T10:31:45;5.07;;;2.40;;
48199;SDS011;33990;44.602;10.976;2023-07-29T10:34:14;4.15;;;2.30;;
48199;SDS011;33990;44.602;10.976;2023-07-29T10:36:41;4.63;;;2.60;;
48199;SDS011;33990;44.602;10.976;2023-07-29T10:39:09;4.72;;;2.67;;
48199;SDS011;33990;44.602;10.976;2023-07-29T10:47:14;5.03;;;2.95;;
48199;SDS011;33990;44.602;10.976;2023-07-29T10:49:47;3.45;;;2.63;;
48199;SDS011;33990;44.602;10.976;2023-07-29T10:52:28;4.63;;;3.03;;
48199;SDS011;33990;44.602;10.976;2023-07-29T10:55:22;3.42;;;2.53;;
48199;SDS011;33990;44.602;10.976;2023-07-29T10:58:12;3.08;;;2.50;;
48199;SDS011;33990;44.602;10.976;2023-07-29T11:00:41;3.58;;;2.63;;
48199;SDS011;33990;44.602;10.976;2023-07-29T11:03:11;3.25;;;2.70;;
48199;SDS011;33990;44.602;10.976;2023-07-29T11:05:48;4.93;;;2.53;;
48199;SDS011;33990;44.602;10.976;2023-07-29T11:08:16;4.20;;;2.70;;
48199;SDS011;33990;44.602;10.976;2023-07-29T11:13:32;3.58;;;2.55;;
48199;SDS011;33990;44.602;10.976;2023-07-29T11:16:01;3.63;;;2.75;;
48199;SDS011;33990;44.602;10.976;2023-07-29T11:18:31;4.70;;;2.83;;
48199;SDS011;33990;44.602;10.976;2023-07-29T11:21:01;4.40;;;2.80;;
48199;SDS011;33990;44.602;10.976;2023-07-29T11:23:31;3.78;;;2.50;;
48199;SDS011;33990;44.602;10.976;2023-07-29T11:25:59;4.32;;;2.85;;
48199;SDS011;33990;44.602;10.976;2023-07-29T11:28:27;4.57;;;2.65;;
48199;SDS011;33990;44.602;10.976;2023-07-29T11:30:55;4.60;;;2.55;;
48199;SDS011;33990;44.602;10.976;2023-07-29T11:33:24;3.47;;;2.78;;
48199;SDS011;33990;44.602;10.976;2023-07-29T11:35:55;4.15;;;2.55;;
48199;SDS011;33990;44.602;10.976;2023-07-29T11:38:22;4.97;;;3.00;;
48199;SDS011;33990;44.602;10.976;2023-07-29T11:40:54;4.50;;;2.97;;
48199;SDS011;33990;44.602;10.976;2023-07-29T11:43:22;3.10;;;2.58;;
48199;SDS011;33990;44.602;10.976;2023-07-29T11:45:51;3.80;;;2.10;;
48199;SDS011;33990;44.602;10.976;2023-07-29T11:48:25;4.05;;;2.72;;
48199;SDS011;33990;44.602;10.976;2023-07-29T11:50:54;4.00;;;2.58;;
48199;SDS011;33990;44.602;10.976;2023-07-29T11:53:22;3.90;;;2.45;;
48199;SDS011;33990;44.602;10.976;2023-07-29T11:55:52;4.90;;;2.72;;
48199;SDS011;33990;44.602;10.976;2023-07-29T11:58:20;3.08;;;2.45;;
48199;SDS011;33990;44.602;10.976;2023-07-29T12:00:48;3.05;;;2.25;;
48199;SDS011;33990;44.602;10.976;2023-07-29T12:03:18;4.68;;;2.92;;
48199;SDS011;33990;44.602;10.976;2023-07-29T12:05:46;4.15;;;2.70;;
48199;SDS011;33990;44.602;10.976;2023-07-29T12:08:15;4.40;;;2.15;;
48199;SDS011;33990;44.602;10.976;2023-07-29T12:10:43;4.10;;;2.63;;
48199;SDS011;33990;44.602;10.976;2023-07-29T12:13:11;4.93;;;2.55;;
48199;SDS011;33990;44.602;10.976;2023-07-29T12:15:38;4.43;;;2.47;;
48199;SDS011;33990;44.602;10.976;2023-07-29T12:18:07;4.97;;;2.53;;
48199;SDS011;33990;44.602;10.976;2023-07-29T12:20:35;5.53;;;3.20;;
48199;SDS011;33990;44.602;10.976;2023-07-29T12:23:03;4.53;;;2.70;;
48199;SDS011;33990;44.602;10.976;2023-07-29T12:25:33;4.22;;;2.60;;
48199;SDS011;33990;44.602;10.976;2023-07-29T12:28:05;3.72;;;2.80;;
48199;SDS011;33990;44.602;10.976;2023-07-29T12:30:34;3.58;;;2.40;;
48199;SDS011;33990;44.602;10.976;2023-07-29T12:33:07;3.63;;;2.53;;
48199;SDS011;33990;44.602;10.976;2023-07-29T12:35:36;4.20;;;3.00;;
48199;SDS011;33990;44.602;10.976;2023-07-29T12:38:04;3.45;;;2.58;;
48199;SDS011;33990;44.602;10.976;2023-07-29T12:40:32;4.25;;;2.78;;
48199;SDS011;33990;44.602;10.976;2023-07-29T12:43:00;2.90;;;2.30;;
48199;SDS011;33990;44.602;10.976;2023-07-29T12:45:28;3.53;;;2.58;;
48199;SDS011;33990;44.602;10.976;2023-07-29T12:48:02;3.60;;;2.63;;
48199;SDS011;33990;44.602;10.976;2023-07-29T12:50:30;5.15;;;2.80;;
48199;SDS011;33990;44.602;10.976;2023-07-29T12:52:57;4.97;;;2.80;;
48199;SDS011;33990;44.602;10.976;2023-07-29T12:55:25;3.15;;;2.38;;
48199;SDS011;33990;44.602;10.976;2023-07-29T12:57:52;3.60;;;2.22;;
48199;SDS011;33990;44.602;10.976;2023-07-29T13:00:19;4.88;;;2.45;;
48199;SDS011;33990;44.602;10.976;2023-07-29T13:02:47;4.85;;;2.25;;
48199;SDS011;33990;44.602;10.976;2023-07-29T13:05:15;4.15;;;2.65;;
48199;SDS011;33990;44.602;10.976;2023-07-29T13:07:43;3.90;;;2.50;;
48199;SDS011;33990;44.602;10.976;2023-07-29T13:10:10;3.42;;;2.33;;
48199;SDS011;33990;44.602;10.976;2023-07-29T13:12:38;3.70;;;2.80;;
48199;SDS011;33990;44.602;10.976;2023-07-29T13:15:06;3.50;;;2.40;;
48199;SDS011;33990;44.602;10.976;2023-07-29T13:17:34;4.40;;;2.97;;
48199;SDS011;33990;44.602;10.976;2023-07-29T13:20:02;4.10;;;2.45;;
48199;SDS011;33990;44.602;10.976;2023-07-29T13:22:29;6.13;;;2.63;;
48199;SDS011;33990;44.602;10.976;2023-07-29T13:24:57;3.42;;;2.33;;
48199;SDS011;33990;44.602;10.976;2023-07-29T13:27:24;3.17;;;2.45;;
48199;SDS011;33990;44.602;10.976;2023-07-29T13:29:52;2.90;;;2.28;;
48199;SDS011;33990;44.602;10.976;2023-07-29T13:32:21;3.80;;;2.70;;
48199;SDS011;33990;44.602;10.976;2023-07-29T13:34:49;3.70;;;2.47;;
48199;SDS011;33990;44.602;10.976;2023-07-29T13:37:16;3.60;;;2.45;;
48199;SDS011;33990;44.602;10.976;2023-07-29T13:39:44;3.92;;;2.55;;
48199;SDS011;33990;44.602;10.976;2023-07-29T13:42:11;4.18;;;2.38;;
48199;SDS011;33990;44.602;10.976;2023-07-29T13:44:39;3.42;;;2.42;;
48199;SDS011;33990;44.602;10.976;2023-07-29T13:47:06;3.83;;;2.58;;
48199;SDS011;33990;44.602;10.976;2023-07-29T13:49:34;4.40;;;2.38;;
48199;SDS011;33990;44.602;10.976;2023-07-29T13:52:01;3.63;;;2.30;;
48199;SDS011;33990;44.602;10.976;2023-07-29T13:54:28;3.30;;;2.10;;
48199;SDS011;33990;44.602;10.976;2023-07-29T13:56:56;3.75;;;2.72;;
48199;SDS011;33990;44.602;10.976;2023-07-29T13:59:23;4.93;;;2.63;;
48199;SDS011;33990;44.602;10.976;2023-07-29T14:01:50;3.97;;;2.80;;
48199;SDS011;33990;44.602;10.976;2023-07-29T14:04:18;4.20;;;2.58;;
48199;SDS011;33990;44.602;10.976;2023-07-29T14:06:45;4.68;;;2.70;;
48199;SDS011;33990;44.602;10.976;2023-07-29T14:09:18;4.38;;;2.67;;
48199;SDS011;33990;44.602;10.976;2023-07-29T14:11:45;4.75;;;2.95;;
48199;SDS011;33990;44.602;10.976;2023-07-29T14:14:12;4.88;;;2.63;;
48199;SDS011;33990;44.602;10.976;2023-07-29T14:16:40;3.63;;;2.35;;
48199;SDS011;33990;44.602;10.976;2023-07-29T14:19:07;3.78;;;2.70;;
48199;SDS011;33990;44.602;10.976;2023-07-29T14:21:34;4.00;;;2.50;;
48199;SDS011;33990;44.602;10.976;2023-07-29T14:24:02;4.53;;;2.33;;
48199;SDS011;33990;44.602;10.976;2023-07-29T14:26:29;5.18;;;2.70;;
48199;SDS011;33990;44.602;10.976;2023-07-29T14:28:57;6.32;;;2.70;;
48199;SDS011;33990;44.602;10.976;2023-07-29T14:31:24;3.28;;;2.28;;
48199;SDS011;33990;44.602;10.976;2023-07-29T14:33:52;5.82;;;3.25;;
48199;SDS011;33990;44.602;10.976;2023-07-29T14:36:19;5.43;;;2.70;;
48199;SDS011;33990;44.602;10.976;2023-07-29T14:38:46;3.78;;;2.40;;
48199;SDS011;33990;44.602;10.976;2023-07-29T14:41:14;3.40;;;2.33;;
48199;SDS011;33990;44.602;10.976;2023-07-29T14:43:41;4.22;;;2.30;;
48199;SDS011;33990;44.602;10.976;2023-07-29T14:46:08;3.75;;;2.53;;
48199;SDS011;33990;44.602;10.976;2023-07-29T14:48:36;3.45;;;2.22;;
48199;SDS011;33990;44.602;10.976;2023-07-29T14:51:03;3.90;;;2.42;;
48199;SDS011;33990;44.602;10.976;2023-07-29T14:53:30;5.53;;;2.13;;